Time;durP1;ratioP1;P1;durP2;ratioP2;P2;SDS_P1;SDS_P2;PMS_P1;PMS_P2;Temp;Humidity;BMP_temperature;BMP_pressure;BME280_temperature;BME280_humidity;BME280_pressure;Samples;Min_cycle;Max_cycle;Signal;HPM_P1;HPM_P2
2021/03/20 00:00:16;;;;;;;8.95;3.40;;;-1.10;78.40;;;;;;2032478;29;20090;-72
2021/03/20 00:01:23;;;;;;;8.40;3.22;;;-1.10;78.60;;;;;;2032467;29;20643;-73
2021/03/20 00:02:24;;;;;;;6.20;3.40;;;-1.20;78.70;;;;;;2032757;29;20396;-72
2021/03/20 00:03:25;;;;;;;9.25;3.30;;;-1.20;79.00;;;;;;2031827;28;20032;-72
2021/03/20 00:04:25;;;;;;;9.68;3.50;;;-1.20;79.00;;;;;;2031950;29;20841;-72
2021/03/20 00:05:26;;;;;;;6.70;3.03;;;-1.20;79.30;;;;;;2033126;29;20036;-73
2021/03/20 00:06:31;;;;;;;6.53;3.15;;;-1.20;79.30;;;;;;2032606;29;20086;-72
2021/03/20 00:07:32;;;;;;;7.32;3.17;;;-1.30;79.60;;;;;;2032796;29;20066;-72
2021/03/20 00:08:34;;;;;;;8.95;3.40;;;-1.30;79.60;;;;;;2032435;29;20047;-73
2021/03/20 00:09:34;;;;;;;7.95;3.40;;;-1.30;79.70;;;;;;2031744;28;20024;-73
2021/03/20 00:10:36;;;;;;;7.63;3.60;;;-1.30;79.90;;;;;;2031331;28;20032;-73
2021/03/20 00:11:39;;;;;;;8.68;3.30;;;-1.30;80.20;;;;;;2032008;29;20047;-72
2021/03/20 00:12:41;;;;;;;6.53;3.33;;;-1.30;80.10;;;;;;2031417;29;20582;-73
2021/03/20 00:13:42;;;;;;;8.05;3.63;;;-1.30;79.90;;;;;;2031740;29;20080;-72
2021/03/20 00:14:43;;;;;;;8.52;3.50;;;-1.20;79.80;;;;;;2032502;29;20024;-73
2021/03/20 00:15:44;;;;;;;10.73;3.53;;;-1.20;79.80;;;;;;2032547;29;20499;-72
2021/03/20 00:16:45;;;;;;;5.32;3.17;;;-1.20;79.70;;;;;;2040015;28;20035;-73
2021/03/20 00:17:45;;;;;;;7.22;3.30;;;-1.30;79.70;;;;;;2039907;29;20113;-72
2021/03/20 00:18:46;;;;;;;7.80;3.25;;;-1.30;80.00;;;;;;2032458;29;20059;-73
2021/03/20 00:19:47;;;;;;;8.27;3.40;;;-1.40;80.10;;;;;;2031817;28;20459;-72
2021/03/20 00:20:47;;;;;;;7.00;3.30;;;-1.40;80.30;;;;;;2031597;28;20039;-72
2021/03/20 00:21:49;;;;;;;6.13;3.40;;;-1.40;80.40;;;;;;2039592;28;20036;-72
2021/03/20 00:22:49;;;;;;;6.60;3.20;;;-1.40;80.60;;;;;;2032619;29;20032;-73
2021/03/20 00:23:50;;;;;;;8.45;3.45;;;-1.40;80.60;;;;;;2032280;29;20028;-72
2021/03/20 00:24:50;;;;;;;7.30;3.58;;;-1.40;80.50;;;;;;2032760;29;20035;-73
2021/03/20 00:25:52;;;;;;;7.38;3.50;;;-1.40;80.60;;;;;;2032494;29;20135;-72
2021/03/20 00:26:53;;;;;;;8.30;3.47;;;-1.50;80.70;;;;;;2032668;29;20032;-72
2021/03/20 00:27:55;;;;;;;9.75;3.55;;;-1.50;80.80;;;;;;2032509;29;20024;-72
2021/03/20 00:28:56;;;;;;;5.57;3.28;;;-1.40;80.90;;;;;;2032078;28;20038;-72
2021/03/20 00:29:57;;;;;;;8.18;3.60;;;-1.50;80.90;;;;;;2032443;29;20047;-72
2021/03/20 00:31:01;;;;;;;6.63;3.30;;;-1.50;81.10;;;;;;2032548;29;20032;-73
2021/03/20 00:32:02;;;;;;;5.70;3.50;;;-1.50;81.30;;;;;;2039930;28;20024;-72
2021/03/20 00:33:02;;;;;;;9.63;3.42;;;-1.60;81.50;;;;;;2039716;29;20032;-72
2021/03/20 00:34:03;;;;;;;7.25;3.25;;;-1.60;81.60;;;;;;2031705;29;20490;-73
2021/03/20 00:35:06;;;;;;;10.23;3.70;;;-1.60;81.50;;;;;;2039129;28;20028;-71
2021/03/20 00:36:08;;;;;;;5.45;2.95;;;-1.50;81.00;;;;;;2038960;29;20027;-72
2021/03/20 00:37:11;;;;;;;7.20;3.40;;;-1.40;80.60;;;;;;2032475;29;20032;-71
2021/03/20 00:38:12;;;;;;;7.85;3.30;;;-1.40;80.50;;;;;;2032304;29;20564;-72
2021/03/20 00:39:13;;;;;;;9.43;3.63;;;-1.50;80.50;;;;;;2032222;29;20040;-72
2021/03/20 00:40:18;;;;;;;8.38;3.50;;;-1.50;80.80;;;;;;2032162;29;20084;-72
2021/03/20 00:41:19;;;;;;;6.88;3.40;;;-1.50;80.80;;;;;;2031751;29;20036;-75
2021/03/20 00:42:19;;;;;;;6.25;3.30;;;-1.50;80.90;;;;;;2031912;29;20028;-72
2021/03/20 00:43:21;;;;;;;8.70;3.40;;;-1.50;81.00;;;;;;2030672;28;20474;-72
2021/03/20 00:44:22;;;;;;;7.38;3.38;;;-1.60;81.00;;;;;;2031068;29;20075;-72
2021/03/20 00:45:25;;;;;;;6.05;3.33;;;-1.60;81.10;;;;;;2031830;29;20028;-72
2021/03/20 00:46:25;;;;;;;9.35;3.40;;;-1.50;81.20;;;;;;2031543;28;20052;-72
2021/03/20 00:47:26;;;;;;;7.65;3.35;;;-1.60;81.20;;;;;;2031739;29;20115;-73
2021/03/20 00:48:30;;;;;;;6.20;3.20;;;-1.50;81.10;;;;;;2039018;28;20032;-72
2021/03/20 00:49:31;;;;;;;6.38;3.30;;;-1.50;81.10;;;;;;2038911;28;20035;-72
2021/03/20 00:50:32;;;;;;;6.20;3.53;;;-1.50;81.30;;;;;;2031862;29;20063;-73
2021/03/20 00:51:33;;;;;;;8.23;4.03;;;-1.60;81.40;;;;;;2039013;28;20054;-72
2021/03/20 00:52:34;;;;;;;6.07;3.30;;;-1.60;81.60;;;;;;2039122;28;20070;-73
2021/03/20 00:53:35;;;;;;;7.80;3.88;;;-1.70;81.80;;;;;;2031081;29;20040;-72
2021/03/20 00:54:36;;;;;;;8.98;3.35;;;-1.70;81.90;;;;;;2031740;29;20028;-72
2021/03/20 00:55:36;;;;;;;7.18;3.65;;;-1.70;81.90;;;;;;2032204;28;20060;-73
2021/03/20 00:56:37;;;;;;;8.00;3.78;;;-1.60;81.80;;;;;;2032094;29;20483;-74
2021/03/20 00:57:38;;;;;;;9.73;3.83;;;-1.70;81.70;;;;;;2036279;29;20174;-74
2021/03/20 00:58:41;;;;;;;6.25;3.47;;;-1.70;82.10;;;;;;2038552;29;20028;-73
2021/03/20 00:59:42;;;;;;;8.52;3.63;;;-1.70;82.50;;;;;;2038022;28;20054;-73
2021/03/20 01:00:43;;;;;;;8.55;3.50;;;-1.80;82.70;;;;;;2030696;29;20028;-73
2021/03/20 01:01:43;;;;;;;7.80;3.80;;;-1.80;83.00;;;;;;2037768;29;20032;-73
2021/03/20 01:02:44;;;;;;;7.22;3.58;;;-1.80;83.20;;;;;;2045694;29;20107;-73
2021/03/20 01:03:45;;;;;;;8.60;3.65;;;-1.80;83.20;;;;;;2032772;29;20035;-73
2021/03/20 01:04:46;;;;;;;7.95;3.65;;;-1.80;83.10;;;;;;2032090;29;20032;-73
2021/03/20 01:05:47;;;;;;;7.65;3.72;;;-1.80;83.10;;;;;;2038970;29;20052;-73
2021/03/20 01:06:48;;;;;;;6.38;3.20;;;-1.80;83.00;;;;;;2038830;29;20502;-73
2021/03/20 01:07:48;;;;;;;10.07;3.88;;;-1.80;83.20;;;;;;2031564;29;20028;-73
2021/03/20 01:08:49;;;;;;;5.70;3.35;;;-1.80;83.20;;;;;;2031376;29;20036;-73
2021/03/20 01:09:50;;;;;;;7.88;3.50;;;-1.80;82.80;;;;;;2031751;29;20036;-73
2021/03/20 01:10:52;;;;;;;7.78;3.53;;;-1.80;82.80;;;;;;2031206;29;20055;-73
2021/03/20 01:11:53;;;;;;;8.05;3.78;;;-1.80;83.10;;;;;;2031495;29;20035;-73
2021/03/20 01:12:53;;;;;;;8.20;3.80;;;-1.80;83.20;;;;;;2031368;29;20489;-73
2021/03/20 01:13:55;;;;;;;7.75;3.50;;;-1.80;83.40;;;;;;2031104;29;20035;-73
2021/03/20 01:14:55;;;;;;;6.45;3.40;;;-1.80;83.40;;;;;;2031284;29;20423;-72
2021/03/20 01:15:56;;;;;;;9.52;3.70;;;-1.90;83.40;;;;;;2030691;29;20035;-73
2021/03/20 01:16:56;;;;;;;9.02;3.90;;;-1.90;83.60;;;;;;2022942;29;20508;-73
2021/03/20 01:17:57;;;;;;;7.88;3.70;;;-1.90;84.00;;;;;;2030748;29;20040;-73
2021/03/20 01:18:58;;;;;;;6.47;3.58;;;-1.90;84.10;;;;;;2031337;29;20024;-73
2021/03/20 01:19:59;;;;;;;7.18;3.55;;;-1.90;84.40;;;;;;2031436;29;20078;-73
2021/03/20 01:20:59;;;;;;;8.00;3.60;;;-1.90;84.40;;;;;;2031061;29;20617;-73
2021/03/20 01:22:00;;;;;;;7.32;3.70;;;-2.00;84.50;;;;;;2031373;28;20021;-73
2021/03/20 01:23:01;;;;;;;6.93;3.83;;;-2.00;84.70;;;;;;2038511;29;20055;-73
2021/03/20 01:24:01;;;;;;;7.20;3.67;;;-2.00;85.00;;;;;;2038149;29;20537;-73
2021/03/20 01:25:04;;;;;;;6.68;3.42;;;-2.10;85.30;;;;;;2031270;29;20036;-73
2021/03/20 01:26:06;;;;;;;7.35;3.50;;;-2.10;85.50;;;;;;2031415;29;20036;-73
2021/03/20 01:27:06;;;;;;;9.35;3.90;;;-2.10;85.50;;;;;;2030615;28;20024;-73
2021/03/20 01:28:07;;;;;;;10.18;3.97;;;-2.00;86.20;;;;;;2030778;29;20032;-73
2021/03/20 01:29:08;;;;;;;12.23;4.38;;;-2.00;85.90;;;;;;2031255;29;20400;-72
2021/03/20 01:30:15;;;;;;;8.77;3.60;;;-2.10;85.60;;;;;;2030581;29;20033;-73
2021/03/20 01:31:16;;;;;;;8.73;3.60;;;-2.10;85.70;;;;;;2030776;29;20021;-73
2021/03/20 01:32:17;;;;;;;8.88;3.85;;;-2.10;85.80;;;;;;2031078;29;20032;-73
2021/03/20 01:33:17;;;;;;;7.43;3.40;;;-2.10;85.90;;;;;;2030625;28;20032;-73
2021/03/20 01:34:18;;;;;;;9.52;3.60;;;-2.10;85.90;;;;;;2038964;29;20074;-73
2021/03/20 01:35:19;;;;;;;8.50;4.10;;;-2.10;85.90;;;;;;2031195;29;20500;-72
2021/03/20 01:36:20;;;;;;;7.80;3.60;;;-2.10;85.90;;;;;;2031037;28;20036;-73
2021/03/20 01:37:20;;;;;;;8.93;3.50;;;-2.10;85.90;;;;;;2031238;29;20055;-73
2021/03/20 01:38:21;;;;;;;6.65;3.60;;;-2.10;85.90;;;;;;2031307;28;20403;-73
2021/03/20 01:39:22;;;;;;;8.52;3.80;;;-2.10;86.60;;;;;;2023433;29;20553;-73
2021/03/20 01:40:29;;;;;;;8.77;3.90;;;-2.10;87.20;;;;;;2023586;29;20037;-73
2021/03/20 01:41:30;;;;;;;7.72;3.55;;;-2.10;87.20;;;;;;2031507;29;20043;-73
2021/03/20 01:42:31;;;;;;;7.10;3.60;;;-2.10;87.30;;;;;;2031674;29;20662;-73
2021/03/20 01:43:32;;;;;;;7.63;3.78;;;-2.20;87.90;;;;;;2031148;29;20186;-73
2021/03/20 01:44:33;;;;;;;7.03;3.85;;;-2.20;87.20;;;;;;2031875;29;20056;-73
2021/03/20 01:45:36;;;;;;;8.38;3.85;;;-2.20;87.30;;;;;;2031604;29;20357;-73
2021/03/20 01:46:42;;;;;;;7.70;3.47;;;-2.30;87.40;;;;;;2031886;29;20036;-73
2021/03/20 01:47:51;;;;;;;9.15;3.67;;;-2.30;88.60;;;;;;2031983;29;20088;-73
2021/03/20 01:48:51;;;;;;;8.32;3.67;;;-2.30;88.00;;;;;;2031793;29;20472;-73
2021/03/20 01:49:52;;;;;;;11.18;3.75;;;-2.30;88.40;;;;;;2031786;29;20120;-73
2021/03/20 01:51:00;;;;;;;8.13;3.80;;;-2.30;88.70;;;;;;2038832;29;20027;-73
2021/03/20 01:52:12;;;;;;;7.47;3.88;;;-2.30;88.70;;;;;;2038284;29;20058;-73
2021/03/20 01:53:29;;;;;;;6.97;3.60;;;-2.30;89.10;;;;;;2031166;29;20037;-73
2021/03/20 01:54:47;;;;;;;8.43;3.70;;;-2.30;89.20;;;;;;2039013;28;20589;-73
2021/03/20 01:55:48;;;;;;;7.90;4.10;;;-2.30;89.40;;;;;;2040025;28;20181;-73
2021/03/20 01:56:49;;;;;;;9.48;3.65;;;-2.30;89.80;;;;;;2024123;29;20036;-73
2021/03/20 01:57:55;;;;;;;8.90;3.33;;;-2.30;89.60;;;;;;2024336;29;20039;-73
2021/03/20 01:58:56;;;;;;;6.90;3.53;;;-2.40;89.50;;;;;;2032560;29;20466;-72
2021/03/20 01:59:59;;;;;;;6.65;3.50;;;-2.40;89.50;;;;;;2039840;28;20039;-73
2021/03/20 02:01:17;;;;;;;7.55;3.47;;;-2.40;89.60;;;;;;2039211;29;20114;-72
2021/03/20 02:02:18;;;;;;;7.05;3.28;;;-2.40;89.90;;;;;;2032648;29;20158;-72
2021/03/20 02:03:20;;;;;;;7.05;3.50;;;-2.40;90.20;;;;;;2032157;29;20807;-73
2021/03/20 02:04:21;;;;;;;6.80;3.08;;;-2.50;90.30;;;;;;2032644;29;20025;-72
2021/03/20 02:05:25;;;;;;;7.30;3.50;;;-2.50;90.40;;;;;;2032489;29;20491;-72
2021/03/20 02:06:27;;;;;;;9.13;3.95;;;-2.50;90.50;;;;;;2039695;28;20148;-72
2021/03/20 02:07:27;;;;;;;8.43;3.80;;;-2.50;91.10;;;;;;2039656;29;20066;-72
2021/03/20 02:08:31;;;;;;;7.60;3.97;;;-2.50;90.80;;;;;;2039703;28;20507;-72
2021/03/20 02:09:34;;;;;;;7.03;3.67;;;-2.40;90.90;;;;;;2039816;29;20430;-71
2021/03/20 02:10:37;;;;;;;6.15;3.50;;;-2.50;90.70;;;;;;2032158;29;20044;-71
2021/03/20 02:12:00;;;;;;;6.72;3.47;;;-2.50;90.70;;;;;;2039739;28;20059;-71
2021/03/20 02:13:30;;;;;;;7.47;3.55;;;-2.50;90.70;;;;;;2036810;29;20028;-71
2021/03/20 02:14:43;;;;;;;9.50;3.90;;;-2.50;91.00;;;;;;2041471;28;20102;-72
2021/03/20 02:15:47;;;;;;;7.07;3.78;;;-2.50;91.00;;;;;;2031960;29;20032;-71
2021/03/20 02:17:26;;;;;;;8.27;3.90;;;-2.50;91.00;;;;;;2032559;28;20028;-74
2021/03/20 02:18:45;;;;;;;7.63;3.90;;;-2.50;90.90;;;;;;2032753;29;20039;-71
2021/03/20 02:20:11;;;;;;;6.90;3.65;;;-2.50;90.90;;;;;;2032471;29;20048;-71
2021/03/20 02:21:19;;;;;;;7.50;3.97;;;-2.50;90.90;;;;;;2032017;29;20025;-71
2021/03/20 02:23:03;;;;;;;7.20;3.95;;;-2.50;91.00;;;;;;2032354;29;20407;-71
2021/03/20 02:24:37;;;;;;;9.13;4.10;;;-2.50;91.10;;;;;;2050486;28;20450;-71
2021/03/20 02:25:57;;;;;;;8.98;3.80;;;-2.60;91.10;;;;;;2032384;29;20067;-70
2021/03/20 02:27:22;;;;;;;7.78;3.67;;;-2.60;91.10;;;;;;2031540;28;20040;-71
2021/03/20 02:28:48;;;;;;;8.27;3.95;;;-2.60;91.30;;;;;;2032017;29;20024;-71
2021/03/20 02:30:10;;;;;;;9.20;4.03;;;-2.60;91.30;;;;;;2032150;29;20031;-71
2021/03/20 02:31:41;;;;;;;9.20;4.00;;;-2.60;91.30;;;;;;2031932;29;20028;-71
2021/03/20 02:33:07;;;;;;;10.23;4.03;;;-2.60;91.40;;;;;;2031524;28;20182;-72
2021/03/20 02:34:16;;;;;;;7.85;3.75;;;-2.60;91.50;;;;;;2031519;29;20059;-71
2021/03/20 02:35:33;;;;;;;8.23;4.18;;;-2.50;91.40;;;;;;2032221;29;20028;-71
2021/03/20 02:36:56;;;;;;;10.05;3.88;;;-2.50;91.40;;;;;;2032223;29;20044;-71
2021/03/20 02:38:18;;;;;;;7.50;3.72;;;-2.60;91.40;;;;;;2032290;28;20480;-71
2021/03/20 02:39:33;;;;;;;8.02;3.88;;;-2.60;91.50;;;;;;2032302;29;20039;-72
2021/03/20 02:40:53;;;;;;;9.93;4.00;;;-2.60;91.70;;;;;;2032052;29;20067;-72
2021/03/20 02:42:11;;;;;;;9.55;4.00;;;-2.60;91.80;;;;;;2032217;29;20795;-72
2021/03/20 02:43:29;;;;;;;10.40;4.20;;;-2.60;91.80;;;;;;2032035;29;20040;-72
2021/03/20 02:44:31;;;;;;;9.20;4.35;;;-2.60;91.80;;;;;;2039544;28;20047;-72
2021/03/20 02:45:41;;;;;;;8.88;3.90;;;-2.60;91.90;;;;;;2039198;29;20069;-72
2021/03/20 02:46:48;;;;;;;9.35;4.10;;;-2.60;92.10;;;;;;2032448;28;20040;-71
2021/03/20 02:47:59;;;;;;;8.00;3.97;;;-2.70;92.10;;;;;;2032272;29;20029;-72
2021/03/20 02:49:33;;;;;;;8.18;4.03;;;-2.70;92.20;;;;;;2032128;29;20465;-72
2021/03/20 02:50:47;;;;;;;8.98;4.15;;;-2.70;92.30;;;;;;2032093;29;20044;-72
2021/03/20 02:51:57;;;;;;;10.93;4.05;;;-2.70;92.40;;;;;;2032309;29;20032;-72
2021/03/20 02:53:08;;;;;;;10.13;4.10;;;-2.70;92.50;;;;;;2032160;29;20043;-72
2021/03/20 02:54:33;;;;;;;10.43;4.15;;;-2.70;92.90;;;;;;2031663;29;20284;-72
2021/03/20 02:55:39;;;;;;;7.68;4.15;;;-2.80;92.90;;;;;;2032047;29;20118;-72
2021/03/20 02:56:46;;;;;;;8.30;4.10;;;-2.80;93.20;;;;;;2032311;29;20091;-72
2021/03/20 02:58:05;;;;;;;9.82;4.22;;;-2.70;93.40;;;;;;2039291;29;20027;-72
2021/03/20 02:59:11;;;;;;;8.05;4.30;;;-2.70;93.40;;;;;;2037068;29;20400;-72
2021/03/20 03:00:37;;;;;;;9.82;3.97;;;-2.70;93.40;;;;;;2032137;29;20504;-72
2021/03/20 03:01:41;;;;;;;8.15;3.88;;;-2.80;93.30;;;;;;2032089;29;20043;-71
2021/03/20 03:02:43;;;;;;;10.25;4.55;;;-2.80;93.30;;;;;;2031578;29;20054;-72
2021/03/20 03:03:46;;;;;;;9.70;4.55;;;-2.80;93.50;;;;;;2031114;29;20035;-72
2021/03/20 03:05:00;;;;;;;8.98;4.25;;;-2.80;93.60;;;;;;2039137;29;20028;-72
2021/03/20 03:06:21;;;;;;;9.80;4.28;;;-2.80;93.60;;;;;;2031774;29;20029;-71
2021/03/20 03:07:25;;;;;;;;;;;-2.80;93.60;;;;;;2039417;28;20032;-72
2021/03/20 03:08:38;;;;;;;11.10;4.43;;;-2.80;93.60;;;;;;2038894;29;19907;-71
2021/03/20 03:09:43;;;;;;;9.27;4.43;;;-2.80;93.80;;;;;;2032190;29;20058;-72
2021/03/20 03:10:50;;;;;;;10.32;4.28;;;-2.80;94.00;;;;;;2031861;29;20047;-72
2021/03/20 03:12:12;;;;;;;10.48;4.28;;;-2.80;93.90;;;;;;2031970;29;20085;-72
2021/03/20 03:13:20;;;;;;;7.97;4.40;;;-2.80;93.90;;;;;;2031513;29;20029;-72
2021/03/20 03:14:25;;;;;;;9.93;4.50;;;-2.80;94.00;;;;;;2032250;29;20050;-72
2021/03/20 03:15:34;;;;;;;11.35;4.50;;;-2.80;93.90;;;;;;2032265;29;20032;-71
2021/03/20 03:16:44;;;;;;;11.68;4.95;;;-2.80;94.00;;;;;;2031609;29;20046;-71
2021/03/20 03:17:51;;;;;;;10.07;4.63;;;-2.80;93.90;;;;;;2031577;29;20639;-72
2021/03/20 03:18:58;;;;;;;11.55;4.60;;;-2.80;93.80;;;;;;2032075;29;20032;-72
2021/03/20 03:20:15;;;;;;;12.38;4.70;;;-2.80;93.60;;;;;;2032051;29;20036;-71
2021/03/20 03:21:18;;;;;;;12.55;4.57;;;-2.80;93.70;;;;;;2031883;29;20047;-72
2021/03/20 03:22:24;;;;;;;9.43;4.60;;;-2.80;93.70;;;;;;2032047;29;20123;-72
2021/03/20 03:23:29;;;;;;;11.38;4.97;;;-2.80;93.80;;;;;;2031633;29;20055;-72
2021/03/20 03:24:31;;;;;;;9.98;4.80;;;-2.80;93.70;;;;;;2039232;29;20036;-72
2021/03/20 03:25:34;;;;;;;11.35;4.85;;;-2.80;93.80;;;;;;2039149;29;20028;-72
2021/03/20 03:26:40;;;;;;;10.45;4.70;;;-2.80;93.80;;;;;;2032098;29;20028;-71
2021/03/20 03:27:46;;;;;;;11.52;4.47;;;-2.80;93.80;;;;;;2031895;29;20021;-72
2021/03/20 03:28:57;;;;;;;10.68;4.45;;;-2.80;93.80;;;;;;2039200;28;20107;-71
2021/03/20 03:29:58;;;;;;;9.07;4.43;;;-2.90;93.90;;;;;;2039127;29;20060;-72
2021/03/20 03:31:08;;;;;;;8.35;4.13;;;-2.90;94.00;;;;;;2038823;29;20411;-72
2021/03/20 03:32:20;;;;;;;7.63;4.20;;;-2.90;94.00;;;;;;2039337;29;20114;-72
2021/03/20 03:33:35;;;;;;;8.57;4.40;;;-2.90;94.10;;;;;;2037234;29;20036;-72
2021/03/20 03:34:57;;;;;;;10.45;4.80;;;-3.00;94.30;;;;;;2031306;28;20037;-71
2021/03/20 03:36:06;;;;;;;13.60;4.88;;;-3.00;94.50;;;;;;2031455;29;20066;-71
2021/03/20 03:37:33;;;;;;;8.95;4.40;;;-3.00;94.70;;;;;;2031261;28;20035;-72
2021/03/20 03:38:55;;;;;;;9.05;4.68;;;-3.00;94.70;;;;;;2029355;28;20043;-71
2021/03/20 03:40:14;;;;;;;9.73;4.60;;;-3.00;94.90;;;;;;2031349;29;20031;-72
2021/03/20 03:41:23;;;;;;;8.20;4.30;;;-3.10;94.90;;;;;;2031518;29;20044;-72
2021/03/20 03:42:25;;;;;;;9.32;4.50;;;-3.10;95.00;;;;;;2031856;28;20036;-72
2021/03/20 03:43:27;;;;;;;11.23;4.85;;;-3.10;95.20;;;;;;2038396;28;20027;-72
2021/03/20 03:44:27;;;;;;;10.88;4.70;;;-3.10;95.20;;;;;;2039036;28;20038;-72
2021/03/20 03:45:28;;;;;;;8.35;4.45;;;-3.10;95.30;;;;;;2038936;29;20047;-71
2021/03/20 03:46:34;;;;;;;9.30;4.47;;;-3.10;95.20;;;;;;2031922;29;20034;-71
2021/03/20 03:47:35;;;;;;;8.88;4.50;;;-3.10;95.20;;;;;;2031742;29;20030;-72
2021/03/20 03:48:36;;;;;;;10.50;4.65;;;-3.10;95.20;;;;;;2031762;29;20028;-71
2021/03/20 03:49:37;;;;;;;9.80;4.88;;;-3.10;95.20;;;;;;2031714;29;20032;-71
2021/03/20 03:50:40;;;;;;;9.90;4.63;;;-3.00;95.20;;;;;;2031474;29;20098;-72
2021/03/20 03:51:41;;;;;;;10.25;4.40;;;-3.00;95.10;;;;;;2031662;29;20032;-72
2021/03/20 03:52:42;;;;;;;8.23;4.30;;;-3.10;95.00;;;;;;2031939;29;20043;-72
2021/03/20 03:53:44;;;;;;;8.75;4.32;;;-3.10;95.00;;;;;;2031236;29;20032;-72
2021/03/20 03:54:45;;;;;;;8.23;4.57;;;-3.10;95.00;;;;;;2031829;29;20544;-72
2021/03/20 03:55:45;;;;;;;8.98;4.60;;;-3.10;95.10;;;;;;2031787;29;20032;-72
2021/03/20 03:57:16;;;;;;;12.10;5.40;;;-3.10;95.20;;;;;;2031998;29;20039;-72
2021/03/20 03:58:28;;;;;;;9.98;4.68;;;-3.10;95.40;;;;;;2031315;29;20036;-72
2021/03/20 03:59:54;;;;;;;11.77;4.72;;;-3.10;95.40;;;;;;2031367;29;20570;-72
2021/03/20 04:01:08;;;;;;;11.40;5.20;;;-3.10;95.60;;;;;;2038857;28;20028;-71
2021/03/20 04:02:45;;;;;;;11.18;4.63;;;-3.10;95.60;;;;;;2037464;28;20784;-74
2021/03/20 04:04:09;;;;;;;13.50;4.97;;;-3.20;95.60;;;;;;2031300;29;20035;-72
2021/03/20 04:05:28;;;;;;;12.02;5.30;;;-3.20;95.70;;;;;;2032182;29;20043;-72
2021/03/20 04:07:06;;;;;;;9.63;4.65;;;-3.20;95.70;;;;;;2032476;29;20028;-72
2021/03/20 04:08:27;;;;;;;8.85;4.60;;;-3.20;95.70;;;;;;2031810;29;20051;-71
2021/03/20 04:09:55;;;;;;;10.93;5.35;;;-3.20;95.70;;;;;;2031912;29;20111;-71
2021/03/20 04:11:24;;;;;;;10.77;4.20;;;-3.20;95.70;;;;;;2031597;29;20541;-71
2021/03/20 04:12:57;;;;;;;11.88;4.82;;;-3.20;95.80;;;;;;2031744;29;20040;-71
2021/03/20 04:14:16;;;;;;;10.50;4.95;;;-3.20;95.90;;;;;;2031266;29;20452;-72
2021/03/20 04:15:27;;;;;;;9.98;4.80;;;-3.20;96.00;;;;;;2031799;29;20375;-71
2021/03/20 04:16:39;;;;;;;12.05;5.30;;;-3.20;96.00;;;;;;2031820;29;20051;-71
2021/03/20 04:18:16;;;;;;;11.85;5.20;;;-3.20;96.10;;;;;;2030660;29;20028;-72
2021/03/20 04:19:29;;;;;;;9.77;4.70;;;-3.20;96.00;;;;;;2031501;29;20043;-72
2021/03/20 04:20:41;;;;;;;9.90;4.97;;;-3.20;95.90;;;;;;2031380;29;20024;-72
2021/03/20 04:22:07;;;;;;;11.00;4.90;;;-3.20;96.00;;;;;;2031020;28;20032;-72
2021/03/20 04:23:15;;;;;;;12.63;5.25;;;-3.20;96.10;;;;;;2031345;29;20085;-71
2021/03/20 04:24:26;;;;;;;11.88;5.35;;;-3.20;96.00;;;;;;2031759;29;20032;-72
2021/03/20 04:25:48;;;;;;;9.43;4.72;;;-3.20;96.00;;;;;;2038885;29;20027;-71
2021/03/20 04:27:00;;;;;;;8.57;4.70;;;-3.20;95.90;;;;;;2036386;29;20034;-71
2021/03/20 04:28:06;;;;;;;10.32;4.78;;;-3.20;95.90;;;;;;2031691;29;20035;-71
2021/03/20 04:29:50;;;;;;;10.05;4.78;;;-3.20;95.90;;;;;;2031730;29;20036;-71
2021/03/20 04:31:04;;;;;;;8.20;4.78;;;-3.20;95.90;;;;;;2055058;28;20734;-71
2021/03/20 04:32:13;;;;;;;10.23;4.63;;;-3.30;95.90;;;;;;2055467;28;20048;-71
2021/03/20 04:33:19;;;;;;;9.65;4.65;;;-3.30;95.90;;;;;;2054901;28;20890;-71
2021/03/20 04:34:34;;;;;;;13.80;5.85;;;-3.30;96.00;;;;;;2055467;28;20031;-71
2021/03/20 04:35:39;;;;;;;12.00;5.47;;;-3.30;96.10;;;;;;2055206;28;20034;-71
2021/03/20 04:36:46;;;;;;;14.38;5.20;;;-3.30;96.10;;;;;;2039346;28;20032;-71
2021/03/20 04:37:51;;;;;;;10.40;4.95;;;-3.30;96.10;;;;;;2031571;29;20028;-71
2021/03/20 04:38:53;;;;;;;11.02;5.28;;;-3.20;96.00;;;;;;2039013;28;20486;-71
2021/03/20 04:39:56;;;;;;;12.18;5.18;;;-3.20;96.00;;;;;;2038920;28;20024;-71
2021/03/20 04:41:01;;;;;;;12.93;5.07;;;-3.20;95.80;;;;;;2038287;29;20024;-71
2021/03/20 04:42:02;;;;;;;9.90;5.25;;;-3.20;95.70;;;;;;2038352;28;20550;-71
2021/03/20 04:43:04;;;;;;;10.82;5.20;;;-3.20;95.70;;;;;;2038427;29;20031;-74
2021/03/20 04:44:05;;;;;;;10.63;4.95;;;-3.20;95.70;;;;;;2038287;29;20115;-71
2021/03/20 04:45:23;;;;;;;11.70;5.00;;;-3.20;95.70;;;;;;2031611;29;20043;-71
2021/03/20 04:46:28;;;;;;;12.40;5.55;;;-3.20;95.70;;;;;;2031748;29;20040;-71
2021/03/20 04:47:37;;;;;;;12.73;5.40;;;-3.20;95.70;;;;;;2031722;28;20484;-71
2021/03/20 04:48:40;;;;;;;11.25;4.88;;;-3.20;95.90;;;;;;2031764;29;20032;-70
2021/03/20 04:49:49;;;;;;;10.18;4.90;;;-3.10;95.90;;;;;;2038774;29;20161;-71
2021/03/20 04:51:07;;;;;;;10.73;4.68;;;-3.10;95.80;;;;;;2037636;29;20031;-71
2021/03/20 04:52:18;;;;;;;11.80;4.85;;;-3.10;95.60;;;;;;2031681;29;20047;-70
2021/03/20 04:53:18;;;;;;;11.80;5.03;;;-3.00;95.50;;;;;;2031212;29;20028;-71
2021/03/20 04:54:20;;;;;;;9.00;4.70;;;-3.00;95.40;;;;;;2031388;29;20537;-71
2021/03/20 04:55:21;;;;;;;9.15;4.47;;;-3.00;95.30;;;;;;2031591;29;20476;-70
2021/03/20 04:56:23;;;;;;;6.90;4.18;;;-3.10;95.30;;;;;;2031515;29;20039;-70
2021/03/20 04:57:39;;;;;;;9.43;4.43;;;-3.10;95.20;;;;;;2032058;29;20483;-71
2021/03/20 04:58:59;;;;;;;12.25;4.95;;;-3.10;95.10;;;;;;2032176;29;20032;-72
2021/03/20 05:00:06;;;;;;;8.60;4.90;;;-3.10;95.20;;;;;;2033131;29;20082;-70
2021/03/20 05:01:21;;;;;;;9.05;4.72;;;-3.10;95.20;;;;;;2032230;29;20029;-72
2021/03/20 05:02:33;;;;;;;10.10;4.47;;;-3.20;95.30;;;;;;2032507;29;20036;-71
2021/03/20 05:03:46;;;;;;;8.50;4.55;;;-3.20;95.30;;;;;;2031798;29;20042;-71
2021/03/20 05:04:49;;;;;;;10.45;4.68;;;-3.20;95.30;;;;;;2032013;28;20075;-71
2021/03/20 05:05:54;;;;;;;9.60;4.75;;;-3.20;95.40;;;;;;2031575;29;20032;-71
2021/03/20 05:06:58;;;;;;;8.98;4.32;;;-3.20;95.40;;;;;;2031536;29;20098;-72
2021/03/20 05:08:03;;;;;;;7.72;4.18;;;-3.20;95.30;;;;;;2031505;29;20024;-71
2021/03/20 05:09:07;;;;;;;8.95;4.57;;;-3.20;95.30;;;;;;2038568;28;20119;-70
2021/03/20 05:10:16;;;;;;;10.18;4.45;;;-3.30;95.40;;;;;;2038333;28;20434;-70
2021/03/20 05:11:32;;;;;;;9.48;4.72;;;-3.20;95.50;;;;;;2031384;29;20186;-71
2021/03/20 05:12:34;;;;;;;9.05;4.70;;;-3.30;95.60;;;;;;2031633;28;20063;-71
2021/03/20 05:13:41;;;;;;;9.15;4.45;;;-3.30;95.60;;;;;;2030914;29;20036;-71
2021/03/20 05:14:50;;;;;;;9.20;4.53;;;-3.30;95.60;;;;;;2031698;29;20090;-71
2021/03/20 05:15:56;;;;;;;10.60;4.88;;;-3.30;95.60;;;;;;2031597;29;20063;-71
2021/03/20 05:17:01;;;;;;;10.80;4.32;;;-3.30;95.60;;;;;;2031613;29;20396;-71
2021/03/20 05:18:02;;;;;;;10.70;4.78;;;-3.30;95.60;;;;;;2031413;29;20059;-71
2021/03/20 05:19:04;;;;;;;9.68;4.55;;;-3.30;95.70;;;;;;2030771;28;20071;-71
2021/03/20 05:20:05;;;;;;;10.88;4.38;;;-3.30;95.60;;;;;;2030916;29;20028;-71
2021/03/20 05:21:05;;;;;;;10.45;4.72;;;-3.30;95.60;;;;;;2031079;29;20024;-71
2021/03/20 05:22:06;;;;;;;7.95;4.05;;;-3.30;95.60;;;;;;2031390;29;20094;-71
2021/03/20 05:23:10;;;;;;;8.93;4.65;;;-3.40;95.80;;;;;;2038598;29;20064;-71
2021/03/20 05:24:15;;;;;;;9.57;4.68;;;-3.30;95.70;;;;;;2037972;29;20126;-71
2021/03/20 05:25:20;;;;;;;8.45;4.63;;;-3.30;95.90;;;;;;2031505;29;20060;-71
2021/03/20 05:26:21;;;;;;;9.32;5.00;;;-3.30;96.00;;;;;;2038654;29;20114;-71
2021/03/20 05:27:26;;;;;;;10.15;5.13;;;-3.30;96.00;;;;;;2030894;29;20155;-71
2021/03/20 05:28:30;;;;;;;11.52;5.00;;;-3.30;96.10;;;;;;2030970;29;20044;-71
2021/03/20 05:29:31;;;;;;;10.25;4.90;;;-3.30;96.00;;;;;;2031542;29;20047;-71
2021/03/20 05:30:32;;;;;;;11.77;5.55;;;-3.30;96.00;;;;;;2039440;28;20066;-71
2021/03/20 05:31:33;;;;;;;9.77;4.97;;;-3.30;96.00;;;;;;2040252;29;20396;-71
2021/03/20 05:32:35;;;;;;;9.95;4.95;;;-3.30;96.00;;;;;;2040418;28;20427;-71
2021/03/20 05:33:38;;;;;;;9.05;4.95;;;-3.30;96.00;;;;;;2040177;29;20074;-71
2021/03/20 05:34:42;;;;;;;8.88;4.93;;;-3.30;95.90;;;;;;2040321;29;20058;-71
2021/03/20 05:35:42;;;;;;;10.50;5.32;;;-3.30;96.00;;;;;;2040548;28;20533;-70
2021/03/20 05:36:43;;;;;;;11.45;5.18;;;-3.30;96.10;;;;;;2040759;29;20035;-72
2021/03/20 05:37:44;;;;;;;10.60;5.10;;;-3.30;96.10;;;;;;2033595;29;20403;-71
2021/03/20 05:38:46;;;;;;;14.75;5.00;;;-3.30;96.10;;;;;;2033069;29;20488;-71
2021/03/20 05:39:47;;;;;;;11.68;5.03;;;-3.30;96.00;;;;;;2033069;29;20044;-71
2021/03/20 05:40:48;;;;;;;12.35;5.05;;;-3.30;96.00;;;;;;2032965;29;20151;-71
2021/03/20 05:42:04;;;;;;;12.20;4.72;;;-3.30;96.00;;;;;;2032887;28;20255;-71
2021/03/20 05:43:23;;;;;;;10.50;4.78;;;-3.30;96.00;;;;;;2039073;29;20098;-72
2021/03/20 05:44:32;;;;;;;9.95;4.90;;;-3.20;96.00;;;;;;2033892;28;20411;-72
2021/03/20 05:45:40;;;;;;;11.10;4.70;;;-3.20;96.00;;;;;;2033306;29;20047;-72
2021/03/20 05:47:03;;;;;;;8.73;4.65;;;-3.10;95.90;;;;;;2033843;29;20102;-72
2021/03/20 05:48:29;;;;;;;10.55;4.60;;;-3.10;95.80;;;;;;2034160;29;20099;-71
2021/03/20 05:49:56;;;;;;;8.82;4.30;;;-3.10;95.80;;;;;;2041787;29;20166;-72